createdAt,value
2018-06-04T00:00:37.203Z,22.30
2018-06-04T00:01:40.619Z,22.20
2018-06-04T00:02:43.985Z,22.20
2018-06-04T00:03:47.367Z,22.20
2018-06-04T00:04:50.796Z,22.20
2018-06-04T00:05:56.488Z,22.20
2018-06-04T00:06:59.908Z,22.20
2018-06-04T00:08:03.289Z,22.20
2018-06-04T00:09:07.308Z,22.20
2018-06-04T00:10:11.777Z,22.20
2018-06-04T00:11:17.066Z,22.20
2018-06-04T00:13:23.551Z,22.20
2018-06-04T00:14:26.932Z,22.20
2018-06-04T00:15:31.412Z,22.20
2018-06-04T00:16:34.812Z,22.10
2018-06-04T00:17:38.260Z,22.10
2018-06-04T00:18:41.636Z,22.10
2018-06-04T00:22:55.064Z,22.10
2018-06-04T00:23:58.446Z,22.10
2018-06-04T00:27:08.637Z,22.10
2018-06-04T00:28:12.028Z,22.10
2018-06-04T00:29:15.411Z,22.10
2018-06-04T00:30:19.887Z,22.00
2018-06-04T00:31:24.206Z,22.00
2018-06-04T00:32:27.600Z,22.00
2018-06-04T00:33:31.007Z,22.00
2018-06-04T00:34:34.388Z,22.00
2018-06-04T00:35:38.921Z,22.00
2018-06-04T00:36:42.358Z,22.00
2018-06-04T00:37:45.740Z,22.00
2018-06-04T00:38:49.112Z,22.00
2018-06-04T00:39:52.489Z,22.00
2018-06-04T00:40:57.071Z,21.90
2018-06-04T00:42:00.519Z,21.90
2018-06-04T00:43:03.899Z,21.90
2018-06-04T00:44:07.291Z,21.90
2018-06-04T00:45:11.751Z,21.90
2018-06-04T00:46:16.283Z,21.90
2018-06-04T00:47:19.692Z,21.90
2018-06-04T00:48:23.068Z,21.90
2018-06-04T00:49:26.444Z,21.90
2018-06-04T00:50:30.811Z,21.80
2018-06-04T00:51:34.216Z,21.80
2018-06-04T00:52:37.618Z,21.80
2018-06-04T00:53:41.048Z,21.80
2018-06-04T00:54:44.423Z,21.80
2018-06-04T00:58:01.349Z,21.80
2018-06-04T00:59:04.729Z,21.80
2018-06-04T01:00:09.055Z,21.80
2018-06-04T01:01:13.458Z,21.80
2018-06-04T01:02:16.858Z,21.80
2018-06-04T01:03:20.255Z,21.80
2018-06-04T01:04:23.645Z,21.80
2018-06-04T01:05:28.567Z,21.80
2018-06-04T01:06:31.976Z,21.70
2018-06-04T01:07:35.360Z,21.70
2018-06-04T01:08:38.760Z,21.70
2018-06-04T01:09:42.140Z,21.70
2018-06-04T01:10:47.218Z,21.70
2018-06-04T01:11:50.634Z,21.70
2018-06-04T01:12:54.024Z,21.70
2018-06-04T01:13:57.445Z,21.70
2018-06-04T01:15:00.824Z,21.60
2018-06-04T01:16:06.663Z,21.60
2018-06-04T01:17:10.076Z,21.60
2018-06-04T01:18:13.452Z,21.60
2018-06-04T01:19:16.854Z,21.50
2018-06-04T01:20:21.552Z,21.50
2018-06-04T01:21:25.930Z,21.50
2018-06-04T01:25:39.641Z,21.50
2018-06-04T01:26:43.059Z,21.50
2018-06-04T01:27:46.432Z,21.40
2018-06-04T01:28:49.820Z,21.40
2018-06-04T01:29:53.228Z,21.40
2018-06-04T01:30:57.629Z,21.30
2018-06-04T01:32:01.016Z,21.30
2018-06-04T01:33:04.400Z,21.30
2018-06-04T01:34:14.185Z,21.30
2018-06-04T01:36:22.915Z,21.30
2018-06-04T01:37:26.312Z,21.30
2018-06-04T01:38:29.688Z,21.20
2018-06-04T01:39:33.072Z,21.20
2018-06-04T01:40:37.483Z,21.20
2018-06-04T01:41:40.881Z,21.20
2018-06-04T01:42:44.259Z,21.20
2018-06-04T01:43:47.742Z,21.20
2018-06-04T01:44:51.141Z,21.20
2018-06-04T01:45:55.554Z,21.20
2018-06-04T01:46:58.964Z,21.20
2018-06-04T01:48:02.338Z,21.20
2018-06-04T01:49:05.749Z,21.10
2018-06-04T01:50:10.245Z,21.10
2018-06-04T01:51:14.910Z,21.10
2018-06-04T01:52:18.306Z,21.10
2018-06-04T01:53:21.684Z,21.10
2018-06-04T01:54:25.060Z,21.10
2018-06-04T02:01:48.616Z,21.10
2018-06-04T02:02:51.999Z,21.10
2018-06-04T02:03:55.385Z,21.10
2018-06-04T02:04:58.763Z,21.00
2018-06-04T02:06:03.261Z,21.00
2018-06-04T02:07:06.756Z,21.00
2018-06-04T02:08:10.140Z,21.00
2018-06-04T02:09:13.511Z,20.90
2018-06-04T02:10:17.887Z,20.90
2018-06-04T02:11:22.577Z,20.90
2018-06-04T02:13:29.079Z,20.90
2018-06-04T02:15:36.667Z,20.90
2018-06-04T02:16:40.075Z,20.90
2018-06-04T02:17:43.479Z,20.90
2018-06-04T02:18:46.968Z,20.90
2018-06-04T02:19:50.343Z,20.90
2018-06-04T02:20:55.566Z,20.90
2018-06-04T02:21:58.972Z,20.90
2018-06-04T02:23:02.427Z,20.90
2018-06-04T02:24:06.020Z,21.00
2018-06-04T02:25:10.893Z,21.00
2018-06-04T02:26:15.661Z,21.00
2018-06-04T02:27:19.056Z,21.00
2018-06-04T02:28:22.455Z,20.90
2018-06-04T02:29:25.827Z,21.00
2018-06-04T02:30:30.100Z,21.00
2018-06-04T02:31:33.520Z,21.00
2018-06-04T02:32:36.908Z,21.00
2018-06-04T02:33:40.304Z,21.00
2018-06-04T02:34:43.680Z,21.00
2018-06-04T02:35:48.232Z,21.00
2018-06-04T02:36:58.092Z,21.00
2018-06-04T02:40:10.650Z,20.90
2018-06-04T02:41:15.996Z,20.90
2018-06-04T02:42:19.404Z,21.00
2018-06-04T02:43:22.835Z,21.00
2018-06-04T02:44:26.240Z,21.00
2018-06-04T02:45:30.616Z,20.90
2018-06-04T02:46:34.030Z,21.00
2018-06-04T02:47:37.424Z,20.90
2018-06-04T02:48:40.816Z,20.90
2018-06-04T02:49:44.229Z,20.90
2018-06-04T02:50:48.621Z,20.90
2018-06-04T02:51:52.028Z,20.90
2018-06-04T02:52:55.409Z,20.90
2018-06-04T02:53:58.789Z,20.90
2018-06-04T02:55:02.200Z,20.90
2018-06-04T02:57:09.324Z,20.90
2018-06-04T02:58:12.700Z,20.90
2018-06-04T02:59:16.072Z,20.90
2018-06-04T03:01:25.320Z,20.90
2018-06-04T03:02:28.724Z,20.90
2018-06-04T03:03:32.161Z,20.90
2018-06-04T03:04:35.487Z,20.90
2018-06-04T03:05:40.009Z,20.90
2018-06-04T03:06:43.424Z,20.90
2018-06-04T03:07:46.816Z,20.90
2018-06-04T03:08:50.251Z,20.90
2018-06-04T03:12:00.464Z,20.80
2018-06-04T03:13:03.844Z,20.80
2018-06-04T03:14:07.220Z,20.80
2018-06-04T03:15:11.632Z,20.80
2018-06-04T03:16:16.116Z,20.80
2018-06-04T03:17:19.524Z,20.70
2018-06-04T03:18:22.900Z,20.70
2018-06-04T03:19:26.276Z,20.60
2018-06-04T03:20:30.779Z,20.60
2018-06-04T03:21:34.220Z,20.60
2018-06-04T03:22:37.596Z,20.60
2018-06-04T03:23:40.971Z,20.50
2018-06-04T03:24:44.400Z,20.60
2018-06-04T03:25:49.960Z,20.60
2018-06-04T03:26:53.378Z,20.50
2018-06-04T03:27:56.756Z,20.60
2018-06-04T03:29:00.137Z,20.60
2018-06-04T03:30:03.713Z,20.60
2018-06-04T03:31:08.196Z,20.60
2018-06-04T03:32:11.641Z,20.60
2018-06-04T03:33:15.024Z,20.60
2018-06-04T03:34:18.403Z,20.60
2018-06-04T03:35:22.719Z,20.60
2018-06-04T03:36:28.115Z,20.60
2018-06-04T03:37:31.521Z,20.60
2018-06-04T03:38:34.905Z,20.60
2018-06-04T03:39:38.288Z,20.60
2018-06-04T03:40:42.882Z,20.70
2018-06-04T03:41:46.287Z,20.70
2018-06-04T03:42:49.675Z,20.70
2018-06-04T03:43:53.052Z,20.70
2018-06-04T03:44:56.459Z,20.70
2018-06-04T03:46:02.039Z,20.70
2018-06-04T03:47:05.482Z,20.70
2018-06-04T03:48:08.880Z,20.70
2018-06-04T03:49:12.256Z,20.70
2018-06-04T03:50:16.786Z,20.70
2018-06-04T03:52:24.036Z,20.60
2018-06-04T03:53:27.448Z,20.60
2018-06-04T03:54:30.824Z,20.70
2018-06-04T03:55:35.290Z,20.60
2018-06-04T03:56:38.763Z,20.70
2018-06-04T03:57:42.137Z,20.70
2018-06-04T03:59:48.620Z,20.70
2018-06-04T04:00:53.051Z,20.70
2018-06-04T04:01:56.475Z,20.70
2018-06-04T04:02:59.928Z,20.70
2018-06-04T04:04:03.312Z,20.70
2018-06-04T04:05:07.763Z,20.70
2018-06-04T04:06:12.240Z,20.70
2018-06-04T04:07:15.640Z,20.70
2018-06-04T04:09:23.027Z,20.60
2018-06-04T04:10:27.472Z,20.60
2018-06-04T04:11:30.883Z,20.60
2018-06-04T04:12:34.263Z,20.50
2018-06-04T04:13:37.657Z,20.60
2018-06-04T04:14:41.052Z,20.60
2018-06-04T04:15:45.534Z,20.60
2018-06-04T04:17:52.035Z,20.60
2018-06-04T04:18:55.418Z,20.60
2018-06-04T04:19:58.816Z,20.60
2018-06-04T04:21:03.280Z,20.60
2018-06-04T04:22:06.679Z,20.60
2018-06-04T04:23:10.063Z,20.60
2018-06-04T04:27:24.136Z,20.70
2018-06-04T04:28:27.516Z,20.70
2018-06-04T04:29:30.893Z,20.60
2018-06-04T04:30:35.379Z,20.70
2018-06-04T04:33:44.991Z,20.60
2018-06-04T04:34:48.371Z,20.60
2018-06-04T04:35:52.762Z,20.60
2018-06-04T04:36:56.160Z,20.60
2018-06-04T04:37:59.537Z,20.60
2018-06-04T04:39:03.250Z,20.60
2018-06-04T04:40:08.380Z,20.60
2018-06-04T04:41:14.018Z,20.60
2018-06-04T04:42:17.419Z,20.60
2018-06-04T04:43:20.803Z,20.60
2018-06-04T04:44:24.191Z,20.60
2018-06-04T04:45:30.223Z,20.60
2018-06-04T04:46:33.655Z,20.60
2018-06-04T04:49:43.183Z,20.70
2018-06-04T04:50:47.598Z,20.70
2018-06-04T04:51:51.020Z,20.70
2018-06-04T04:52:54.396Z,20.70
2018-06-04T04:53:57.776Z,20.70
2018-06-04T04:55:01.154Z,20.70
2018-06-04T04:56:05.784Z,20.70
2018-06-04T04:57:09.204Z,20.70
2018-06-04T04:58:12.575Z,20.70
2018-06-04T04:59:15.957Z,20.70
2018-06-04T05:00:26.615Z,20.70
2018-06-04T05:01:30.336Z,20.80
2018-06-04T05:02:33.733Z,20.70
2018-06-04T05:03:37.119Z,20.70
2018-06-04T05:04:40.499Z,20.70
2018-06-04T05:05:45.063Z,20.70
2018-06-04T05:06:48.476Z,20.70
2018-06-04T05:07:51.876Z,20.70
2018-06-04T05:08:55.251Z,20.80
2018-06-04T05:09:58.668Z,20.80
2018-06-04T05:11:03.144Z,20.70
2018-06-04T05:12:06.560Z,20.70
2018-06-04T05:13:09.967Z,20.70
2018-06-04T05:14:13.348Z,20.70
2018-06-04T05:15:17.853Z,20.70
2018-06-04T05:16:22.233Z,20.80
2018-06-04T05:17:25.616Z,20.80
2018-06-04T05:18:29.012Z,20.70
2018-06-04T05:19:32.388Z,20.70
2018-06-04T05:20:36.892Z,20.70
2018-06-04T05:21:40.308Z,20.70
2018-06-04T05:22:43.737Z,20.70
2018-06-04T05:23:47.121Z,20.80
2018-06-04T05:25:55.112Z,20.80
2018-06-04T05:26:58.526Z,20.80
2018-06-04T05:28:01.897Z,20.80
2018-06-04T05:29:05.419Z,20.80
2018-06-04T05:30:09.835Z,20.80
2018-06-04T05:31:15.029Z,20.80
2018-06-04T05:32:18.443Z,20.80
2018-06-04T05:33:21.819Z,20.80
2018-06-04T05:34:25.223Z,20.80
2018-06-04T05:35:29.683Z,20.90
2018-06-04T05:36:33.086Z,20.90
2018-06-04T05:39:42.648Z,21.00
2018-06-04T05:40:47.127Z,21.00
2018-06-04T05:41:50.640Z,21.00
2018-06-04T05:42:54.031Z,21.00
2018-06-04T05:44:03.934Z,21.00
2018-06-04T05:45:09.001Z,21.10
2018-06-04T05:46:13.810Z,21.10
2018-06-04T05:47:17.204Z,21.10
2018-06-04T05:48:20.582Z,21.10
2018-06-04T05:49:23.976Z,21.10
2018-06-04T05:50:29.109Z,21.10
2018-06-04T05:51:32.504Z,21.10
2018-06-04T05:52:35.880Z,21.10
2018-06-04T05:53:42.221Z,21.10
2018-06-04T05:54:45.596Z,21.10
2018-06-04T05:55:50.137Z,21.00
2018-06-04T05:56:53.552Z,21.00
2018-06-04T05:57:56.931Z,21.00
2018-06-04T05:59:00.316Z,21.00
2018-06-04T06:00:05.564Z,21.10
2018-06-04T06:01:10.042Z,21.10
2018-06-04T06:02:13.444Z,21.10
2018-06-04T06:03:23.448Z,21.10
2018-06-04T06:04:26.837Z,21.10
2018-06-04T06:05:31.336Z,21.10
2018-06-04T06:06:34.760Z,21.10
2018-06-04T06:07:38.146Z,21.10
2018-06-04T06:08:44.476Z,21.10
2018-06-04T06:09:47.853Z,21.10
2018-06-04T06:10:55.277Z,21.20
2018-06-04T06:11:58.687Z,21.20
2018-06-04T06:14:05.329Z,21.20
2018-06-04T06:15:09.699Z,21.20
2018-06-04T06:16:14.136Z,21.20
2018-06-04T06:17:17.555Z,21.20
2018-06-04T06:18:23.872Z,21.20
2018-06-04T06:19:27.248Z,21.20
2018-06-04T06:20:31.503Z,21.20
2018-06-04T06:21:34.915Z,21.30
2018-06-04T06:22:38.317Z,21.30
2018-06-04T06:23:41.684Z,21.30
2018-06-04T06:24:45.068Z,21.40
2018-06-04T06:25:49.552Z,21.40
2018-06-04T06:28:59.200Z,21.40
2018-06-04T06:30:02.584Z,21.40
2018-06-04T06:32:10.347Z,21.40
2018-06-04T06:33:13.760Z,21.40
2018-06-04T06:34:17.139Z,21.40
2018-06-04T06:35:21.501Z,21.40
2018-06-04T06:36:25.882Z,21.40
2018-06-04T06:37:29.276Z,21.40
2018-06-04T06:38:32.687Z,21.50
2018-06-04T06:39:36.075Z,21.50
2018-06-04T06:40:40.590Z,21.50
2018-06-04T06:41:44.012Z,21.50
2018-06-04T06:42:47.392Z,21.50
2018-06-04T06:43:50.811Z,21.50
2018-06-04T06:47:01.025Z,21.60
2018-06-04T06:48:04.408Z,21.60
2018-06-04T06:49:07.831Z,21.60
2018-06-04T06:50:12.297Z,21.60
2018-06-04T06:52:19.820Z,21.60
2018-06-04T06:53:23.195Z,21.70
2018-06-04T06:54:26.591Z,21.70
2018-06-04T06:55:31.051Z,21.70
2018-06-04T06:56:34.472Z,21.80
2018-06-04T06:57:37.856Z,21.80
2018-06-04T06:58:41.235Z,21.80
2018-06-04T06:59:44.631Z,21.80
2018-06-04T07:00:49.539Z,21.80
2018-06-04T07:01:53.011Z,21.80
2018-06-04T07:02:58.148Z,21.80
2018-06-04T07:04:01.532Z,21.80
2018-06-04T07:05:05.877Z,21.80
2018-06-04T07:06:10.300Z,21.90
2018-06-04T07:07:13.710Z,21.90
2018-06-04T07:08:17.116Z,21.90
2018-06-04T07:09:20.496Z,21.90
2018-06-04T07:10:24.951Z,21.90
2018-06-04T07:12:31.912Z,21.90
2018-06-04T07:13:35.308Z,21.90
2018-06-04T07:14:38.736Z,22.00
2018-06-04T07:15:43.163Z,22.00
2018-06-04T07:16:46.560Z,22.00
2018-06-04T07:17:49.944Z,22.00
2018-06-04T07:18:53.328Z,22.10
2018-06-04T07:19:56.713Z,22.10
2018-06-04T07:21:01.657Z,22.10
2018-06-04T07:22:05.071Z,22.10
2018-06-04T07:23:08.454Z,22.10
2018-06-04T07:24:11.860Z,22.20
2018-06-04T07:27:23.400Z,22.20
2018-06-04T07:28:26.779Z,22.20
2018-06-04T07:29:33.120Z,22.20
2018-06-04T07:30:38.600Z,22.20
2018-06-04T07:31:42.031Z,22.20
2018-06-04T07:32:45.409Z,22.30
2018-06-04T07:33:48.792Z,22.30
2018-06-04T07:34:52.184Z,22.30
2018-06-04T07:36:01.845Z,22.30
2018-06-04T07:37:05.260Z,22.30
2018-06-04T07:38:15.027Z,22.30
2018-06-04T07:41:26.062Z,22.30
2018-06-04T07:42:29.495Z,22.30
2018-06-04T07:43:32.878Z,22.30
2018-06-04T07:44:36.292Z,22.30
2018-06-04T07:45:41.255Z,22.30
2018-06-04T07:46:44.669Z,22.30
2018-06-04T07:48:51.148Z,22.40
2018-06-04T07:49:54.596Z,22.40
2018-06-04T07:50:58.999Z,22.40
2018-06-04T07:52:02.408Z,22.40
2018-06-04T07:53:05.816Z,22.40
2018-06-04T07:56:18.649Z,22.40
2018-06-04T07:57:22.073Z,22.40
2018-06-04T07:58:25.483Z,22.40
2018-06-04T07:59:28.860Z,22.40
2018-06-04T08:00:33.760Z,22.40
2018-06-04T08:01:37.161Z,22.40
2018-06-04T08:02:40.567Z,22.40
2018-06-04T08:03:43.967Z,22.50
2018-06-04T08:04:47.340Z,22.50
2018-06-04T08:05:51.845Z,22.50
2018-06-04T08:07:58.727Z,22.50
2018-06-04T08:09:02.124Z,22.50
2018-06-04T08:10:06.795Z,22.50
2018-06-04T08:11:11.285Z,22.60
2018-06-04T08:12:14.683Z,22.60
2018-06-04T08:13:18.067Z,22.60
2018-06-04T08:14:21.460Z,22.60
2018-06-04T08:15:25.850Z,22.60
2018-06-04T08:16:29.840Z,22.60
2018-06-04T08:17:33.220Z,22.60
2018-06-04T08:18:36.592Z,22.60
2018-06-04T08:19:40.036Z,22.60
2018-06-04T08:20:44.272Z,22.70
2018-06-04T08:21:47.640Z,22.60
2018-06-04T08:22:51.016Z,22.70
2018-06-04T08:23:54.450Z,22.70
2018-06-04T08:24:57.809Z,22.70
2018-06-04T08:26:02.206Z,22.70
2018-06-04T08:27:05.588Z,22.70
2018-06-04T08:28:08.971Z,22.80
2018-06-04T08:29:12.392Z,22.80
2018-06-04T08:30:17.349Z,22.80
2018-06-04T08:31:27.956Z,22.80
2018-06-04T08:32:31.341Z,22.90
2018-06-04T08:33:34.711Z,22.90
2018-06-04T08:34:38.087Z,22.90
2018-06-04T08:35:42.596Z,22.90
2018-06-04T08:36:45.992Z,23.00
2018-06-04T08:37:49.360Z,23.00
2018-06-04T08:38:52.736Z,23.00
2018-06-04T08:39:56.120Z,23.00
2018-06-04T08:41:00.627Z,23.00
2018-06-04T08:42:04.013Z,23.10
2018-06-04T08:43:07.404Z,23.10
2018-06-04T08:45:21.554Z,23.10
2018-06-04T08:46:25.542Z,23.20
2018-06-04T08:47:28.925Z,23.20
2018-06-04T08:48:32.300Z,23.30
2018-06-04T08:49:35.704Z,23.30
2018-06-04T08:50:40.261Z,23.30
2018-06-04T08:52:46.755Z,23.40
2018-06-04T08:53:50.132Z,23.40
2018-06-04T08:57:00.536Z,23.50
2018-06-04T08:58:03.916Z,23.60
2018-06-04T08:59:07.300Z,23.60
2018-06-04T09:00:11.776Z,23.60
2018-06-04T09:01:16.777Z,23.60
2018-06-04T09:02:20.232Z,23.60
2018-06-04T09:03:23.619Z,23.60
2018-06-04T09:04:26.992Z,23.60
2018-06-04T09:05:31.427Z,23.60
2018-06-04T09:06:34.839Z,23.50
2018-06-04T09:07:38.248Z,23.60
2018-06-04T09:11:52.168Z,23.60
2018-06-04T09:12:55.577Z,23.60
2018-06-04T09:13:58.956Z,23.60
2018-06-04T09:15:03.207Z,23.60
2018-06-04T09:16:07.847Z,23.60
2018-06-04T09:17:11.276Z,23.60
2018-06-04T09:18:14.684Z,23.60
2018-06-04T09:19:18.061Z,23.60
2018-06-04T09:20:22.556Z,23.50
2018-06-04T09:21:27.155Z,23.50
2018-06-04T09:22:30.583Z,23.50
2018-06-04T09:23:33.987Z,23.50
2018-06-04T09:24:37.475Z,23.60
2018-06-04T09:25:41.927Z,23.60
2018-06-04T09:26:45.335Z,23.60
2018-06-04T09:27:48.716Z,23.60
2018-06-04T09:29:55.210Z,23.60
2018-06-04T09:31:00.215Z,23.60
2018-06-04T09:32:03.652Z,23.60
2018-06-04T09:33:07.034Z,23.60
2018-06-04T09:34:10.449Z,23.60
2018-06-04T09:35:15.300Z,23.60
2018-06-04T09:36:19.781Z,23.70
2018-06-04T09:37:23.196Z,23.70
2018-06-04T09:38:26.575Z,23.70
2018-06-04T09:39:29.980Z,23.70
2018-06-04T09:40:34.589Z,23.70
2018-06-04T09:41:38.004Z,23.70
2018-06-04T09:42:41.373Z,23.70
2018-06-04T09:43:44.747Z,23.70
2018-06-04T09:44:48.168Z,23.70
2018-06-04T09:45:52.646Z,23.80
2018-06-04T09:46:56.056Z,23.80
2018-06-04T09:47:59.425Z,23.80
2018-06-04T09:49:02.801Z,23.80
2018-06-04T09:50:07.329Z,23.80
2018-06-04T09:51:11.867Z,23.80
2018-06-04T09:52:15.280Z,23.80
2018-06-04T09:53:18.659Z,23.80
2018-06-04T09:54:22.036Z,23.80
2018-06-04T09:55:26.460Z,23.90
2018-06-04T09:56:30.346Z,23.90
2018-06-04T09:57:33.714Z,23.90
2018-06-04T09:58:37.095Z,24.00
2018-06-04T09:59:40.477Z,24.00
2018-06-04T10:00:45.026Z,24.00
2018-06-04T10:03:54.559Z,24.00
2018-06-04T10:04:57.936Z,24.00
2018-06-04T10:06:02.368Z,24.00
2018-06-04T10:07:05.768Z,24.00
2018-06-04T10:08:09.139Z,24.10
2018-06-04T10:09:12.512Z,24.10
2018-06-04T10:10:17.029Z,24.10
2018-06-04T10:11:22.479Z,24.00
2018-06-04T10:12:25.916Z,24.00
2018-06-04T10:13:29.296Z,24.10
2018-06-04T10:14:32.716Z,24.10
2018-06-04T10:15:37.777Z,24.10
2018-06-04T10:16:41.208Z,24.10
2018-06-04T10:17:44.580Z,24.10
2018-06-04T10:18:47.956Z,24.20
2018-06-04T10:19:51.324Z,24.20
2018-06-04T10:22:00.516Z,24.20
2018-06-04T10:23:03.924Z,24.30
2018-06-04T10:25:11.418Z,24.30
2018-06-04T10:26:15.915Z,24.30
2018-06-04T10:27:19.359Z,24.30
2018-06-04T10:28:22.732Z,24.30
2018-06-04T10:29:26.126Z,24.30
2018-06-04T10:30:30.655Z,24.20
2018-06-04T10:31:34.051Z,24.20
2018-06-04T10:32:37.448Z,24.20
2018-06-04T10:33:40.879Z,24.20
2018-06-04T10:34:44.214Z,24.20
2018-06-04T10:35:49.395Z,24.30
2018-06-04T10:36:52.789Z,24.30
2018-06-04T10:37:56.183Z,24.30
2018-06-04T10:38:59.564Z,24.40
2018-06-04T10:40:03.153Z,24.40
2018-06-04T10:41:07.699Z,24.40
2018-06-04T10:42:11.119Z,24.40
2018-06-04T10:43:14.523Z,24.40
2018-06-04T10:44:17.894Z,24.50
2018-06-04T10:45:22.529Z,24.40
2018-06-04T10:46:26.731Z,24.40
2018-06-04T10:47:30.139Z,24.40
2018-06-04T10:48:33.536Z,24.40
2018-06-04T10:49:36.911Z,24.50
2018-06-04T10:50:41.310Z,24.50
2018-06-04T10:51:44.707Z,24.50
2018-06-04T10:52:48.092Z,24.60
2018-06-04T10:53:51.504Z,24.60
2018-06-04T10:54:54.872Z,24.60
2018-06-04T10:55:59.349Z,24.60
2018-06-04T10:57:02.755Z,24.70
2018-06-04T10:58:06.164Z,24.70
2018-06-04T10:59:09.556Z,24.70
2018-06-04T11:00:13.869Z,24.70
2018-06-04T11:02:21.171Z,24.80
2018-06-04T11:03:24.591Z,24.80
2018-06-04T11:04:27.992Z,24.90
2018-06-04T11:05:32.443Z,24.90
2018-06-04T11:06:35.856Z,25.00
2018-06-04T11:08:42.312Z,25.10
2018-06-04T11:09:45.718Z,25.10
2018-06-04T11:10:50.149Z,25.10
2018-06-04T11:11:53.576Z,25.10
2018-06-04T11:12:56.959Z,25.10
2018-06-04T11:14:00.344Z,25.10
2018-06-04T11:15:04.392Z,25.10
2018-06-04T11:16:08.910Z,25.20
2018-06-04T11:17:12.318Z,25.20
2018-06-04T11:18:15.685Z,25.20
2018-06-04T11:19:19.063Z,25.20
2018-06-04T11:20:23.469Z,25.30
2018-06-04T11:21:27.831Z,25.30
2018-06-04T11:22:31.212Z,25.30
2018-06-04T11:23:34.587Z,25.40
2018-06-04T11:24:37.964Z,25.40
2018-06-04T11:25:43.157Z,25.30
2018-06-04T11:26:46.584Z,25.30
2018-06-04T11:27:49.964Z,25.30
2018-06-04T11:28:53.344Z,25.30
2018-06-04T11:29:56.732Z,25.30
2018-06-04T11:31:01.369Z,25.40
2018-06-04T11:32:04.867Z,25.40
2018-06-04T11:33:08.240Z,25.40
2018-06-04T11:34:11.623Z,25.50
2018-06-04T11:35:16.117Z,25.50
2018-06-04T11:36:20.690Z,25.50
2018-06-04T11:37:24.121Z,25.50
2018-06-04T11:38:27.501Z,25.50
2018-06-04T11:39:30.920Z,25.50
2018-06-04T11:40:35.189Z,25.60
2018-06-04T11:41:38.632Z,25.60
2018-06-04T11:42:42.015Z,25.60
2018-06-04T11:43:45.391Z,25.60
2018-06-04T11:44:48.783Z,25.60
2018-06-04T11:45:53.247Z,25.60
2018-06-04T11:46:56.688Z,25.60
2018-06-04T11:48:00.064Z,25.60
2018-06-04T11:49:03.444Z,25.60
2018-06-04T11:50:06.891Z,25.60
2018-06-04T11:51:12.253Z,25.70
2018-06-04T11:52:15.718Z,25.70
2018-06-04T11:53:19.097Z,25.70
2018-06-04T11:54:22.479Z,25.70
2018-06-04T11:55:27.039Z,25.70
2018-06-04T11:56:31.897Z,25.70
2018-06-04T11:57:35.256Z,25.80
2018-06-04T11:58:38.645Z,25.80
2018-06-04T12:00:46.309Z,25.70
2018-06-04T12:01:49.761Z,25.70
2018-06-04T12:02:53.156Z,25.70
2018-06-04T12:03:56.530Z,25.70
2018-06-04T12:04:59.907Z,25.70
2018-06-04T12:06:04.762Z,25.80
2018-06-04T12:07:08.183Z,25.80
2018-06-04T12:08:11.587Z,25.80
2018-06-04T12:09:14.967Z,25.80
2018-06-04T12:12:26.017Z,25.90
2018-06-04T12:13:29.419Z,25.90
2018-06-04T12:14:32.804Z,25.90
2018-06-04T12:15:37.264Z,25.90
2018-06-04T12:16:40.739Z,25.90
2018-06-04T12:17:44.111Z,26.00
2018-06-04T12:18:47.783Z,26.10
2018-06-04T12:19:51.151Z,26.20
2018-06-04T12:20:55.524Z,26.20
2018-06-04T12:21:58.947Z,26.20
2018-06-04T12:23:02.331Z,26.30
2018-06-04T12:24:05.815Z,26.40
2018-06-04T12:25:10.240Z,26.40
2018-06-04T12:29:23.618Z,26.60
2018-06-04T12:30:28.036Z,26.60
2018-06-04T12:31:31.447Z,26.60
2018-06-04T12:32:34.831Z,26.50
2018-06-04T12:33:38.215Z,26.60
2018-06-04T12:34:41.615Z,26.50
2018-06-04T12:35:45.930Z,26.50
2018-06-04T12:37:52.403Z,26.60
2018-06-04T12:38:55.795Z,26.60
2018-06-04T12:39:59.199Z,26.70
2018-06-04T12:41:03.547Z,26.70
2018-06-04T12:42:06.958Z,26.70
2018-06-04T12:43:10.329Z,26.70
2018-06-04T12:44:13.699Z,26.70
2018-06-04T12:45:19.713Z,26.70
2018-06-04T12:46:24.791Z,26.80
2018-06-04T12:47:28.243Z,26.80
2018-06-04T12:48:31.627Z,26.90
2018-06-04T12:49:34.999Z,27.00
2018-06-04T12:51:42.154Z,27.00
2018-06-04T12:52:45.531Z,27.00
2018-06-04T12:53:48.915Z,27.00
2018-06-04T12:54:52.291Z,27.00
2018-06-04T12:55:56.884Z,27.00
2018-06-04T12:57:00.292Z,27.00
2018-06-04T12:58:03.663Z,27.00
2018-06-04T12:59:07.047Z,27.10
2018-06-04T13:00:11.625Z,27.10
2018-06-04T13:01:15.960Z,27.10
2018-06-04T13:02:19.364Z,27.20
2018-06-04T13:03:22.749Z,27.20
2018-06-04T13:04:26.165Z,27.30
2018-06-04T13:05:31.763Z,27.40
2018-06-04T13:06:35.187Z,27.40
2018-06-04T13:07:38.568Z,27.40
2018-06-04T13:08:41.949Z,27.50
2018-06-04T13:09:45.440Z,27.50
2018-06-04T13:10:49.937Z,27.60
2018-06-04T13:15:02.741Z,27.80
2018-06-04T13:16:07.783Z,27.80
2018-06-04T13:17:11.211Z,27.90
2018-06-04T13:18:14.687Z,27.90
2018-06-04T13:19:18.067Z,27.90
2018-06-04T13:20:23.066Z,28.00
2018-06-04T13:21:27.499Z,27.90
2018-06-04T13:22:30.935Z,27.90
2018-06-04T13:23:34.343Z,27.90
2018-06-04T13:24:37.723Z,27.90
2018-06-04T13:25:42.110Z,27.90
2018-06-04T13:26:45.503Z,27.90
2018-06-04T13:27:48.903Z,28.00
2018-06-04T13:28:52.287Z,28.00
2018-06-04T13:29:55.668Z,28.00
2018-06-04T13:31:00.134Z,28.00
2018-06-04T13:34:09.703Z,28.00
2018-06-04T13:35:15.476Z,28.00
2018-06-04T13:36:19.955Z,28.00
2018-06-04T13:37:23.368Z,27.90
2018-06-04T13:38:26.805Z,27.90
2018-06-04T13:39:30.195Z,27.90
2018-06-04T13:41:37.551Z,27.90
2018-06-04T13:42:40.927Z,27.80
2018-06-04T13:43:44.359Z,27.80
2018-06-04T13:44:47.737Z,27.80
2018-06-04T13:46:54.957Z,27.90
2018-06-04T13:47:58.374Z,27.90
2018-06-04T13:49:01.754Z,28.10
2018-06-04T13:50:06.613Z,28.10
2018-06-04T13:51:11.103Z,28.30
2018-06-04T13:52:14.511Z,28.30
2018-06-04T13:53:17.903Z,28.40
2018-06-04T13:54:21.291Z,28.50
2018-06-04T13:55:25.923Z,28.60
2018-06-04T13:56:29.808Z,28.60
2018-06-04T13:58:36.337Z,28.70
2018-06-04T13:59:39.745Z,28.80
2018-06-04T14:00:44.356Z,28.80
2018-06-04T14:01:47.771Z,28.70
2018-06-04T14:02:51.148Z,28.70
2018-06-04T14:03:54.526Z,28.60
2018-06-04T14:04:57.915Z,28.60
2018-06-04T14:06:03.074Z,28.50
2018-06-04T14:07:06.531Z,28.50
2018-06-04T14:08:09.915Z,28.50
2018-06-04T14:09:13.283Z,28.50
2018-06-04T14:10:18.102Z,28.50
2018-06-04T14:13:28.484Z,28.20
2018-06-04T14:14:31.852Z,28.20
2018-06-04T14:15:36.377Z,28.10
2018-06-04T14:16:39.786Z,28.10
2018-06-04T14:17:43.164Z,28.00
2018-06-04T14:18:46.539Z,28.00
2018-06-04T14:19:49.951Z,27.90
2018-06-04T14:20:55.439Z,27.80
2018-06-04T14:21:58.851Z,27.90
2018-06-04T14:24:05.491Z,27.80
2018-06-04T14:25:10.006Z,27.80
2018-06-04T14:26:15.595Z,27.70
2018-06-04T14:27:18.981Z,27.80
2018-06-04T14:28:22.364Z,27.70
2018-06-04T14:29:25.771Z,27.70
2018-06-04T14:30:30.512Z,27.70
2018-06-04T14:32:37.019Z,27.80
2018-06-04T14:33:40.423Z,27.80
2018-06-04T14:34:43.779Z,27.90
2018-06-04T14:36:50.915Z,28.10
2018-06-04T14:37:54.291Z,28.20
2018-06-04T14:38:57.660Z,28.30
2018-06-04T14:40:01.030Z,28.40
2018-06-04T14:41:05.600Z,28.50
2018-06-04T14:42:08.999Z,28.60
2018-06-04T14:43:12.379Z,28.70
2018-06-04T14:44:15.779Z,28.80
2018-06-04T14:45:20.189Z,28.90
2018-06-04T14:46:24.332Z,29.00
2018-06-04T14:47:27.759Z,29.10
2018-06-04T14:48:31.135Z,29.20
2018-06-04T14:49:34.524Z,29.30
2018-06-04T14:50:38.928Z,29.30
2018-06-04T14:51:42.323Z,29.40
2018-06-04T14:52:45.727Z,29.40
2018-06-04T14:53:49.091Z,29.40
2018-06-04T14:54:52.459Z,29.40
2018-06-04T14:55:56.864Z,29.40
2018-06-04T14:57:00.251Z,29.50
2018-06-04T14:58:03.643Z,29.50
2018-06-04T14:59:07.046Z,29.50
2018-06-04T15:00:12.928Z,29.50
2018-06-04T15:01:19.375Z,29.50
2018-06-04T15:02:22.779Z,29.50
2018-06-04T15:03:26.195Z,29.50
2018-06-04T15:04:29.567Z,29.60
2018-06-04T15:05:34.020Z,29.60
2018-06-04T15:06:37.428Z,29.60
2018-06-04T15:07:40.798Z,29.70
2018-06-04T15:08:44.191Z,29.70
2018-06-04T15:09:47.567Z,29.70
2018-06-04T15:10:51.994Z,29.80
2018-06-04T15:14:01.588Z,29.90
2018-06-04T15:15:06.506Z,29.90
2018-06-04T15:16:10.960Z,29.90
2018-06-04T15:17:14.351Z,29.90
2018-06-04T15:18:17.723Z,29.90
2018-06-04T15:19:21.119Z,29.90
2018-06-04T15:20:25.630Z,29.90